sensor_id;sensor_type;location;lat;lon;timestamp;P1;durP1;ratioP1;P2;durP2;ratioP2
43146;SDS011;28752;48.266;7.402;2022-10-15T00:00:39;0.30;;;0.10;;
43146;SDS011;28752;48.266;7.402;2022-10-15T00:03:04;0.35;;;0.08;;
43146;SDS011;28752;48.266;7.402;2022-10-15T00:05:30;0.10;;;0.10;;
43146;SDS011;28752;48.266;7.402;2022-10-15T00:07:56;0.30;;;0.13;;
43146;SDS011;28752;48.266;7.402;2022-10-15T00:10:21;0.50;;;0.20;;
43146;SDS011;28752;48.266;7.402;2022-10-15T00:12:47;0.68;;;0.32;;
43146;SDS011;28752;48.266;7.402;2022-10-15T00:15:13;0.20;;;0.20;;
43146;SDS011;28752;48.266;7.402;2022-10-15T00:17:38;0.40;;;0.40;;
43146;SDS011;28752;48.266;7.402;2022-10-15T00:20:05;0.40;;;0.20;;
43146;SDS011;28752;48.266;7.402;2022-10-15T00:22:32;0.10;;;0.10;;
43146;SDS011;28752;48.266;7.402;2022-10-15T00:24:58;1.33;;;0.40;;
43146;SDS011;28752;48.266;7.402;2022-10-15T00:27:23;0.10;;;0.10;;
43146;SDS011;28752;48.266;7.402;2022-10-15T00:29:49;0.03;;;0.03;;
43146;SDS011;28752;48.266;7.402;2022-10-15T00:32:14;0.23;;;0.20;;
43146;SDS011;28752;48.266;7.402;2022-10-15T00:34:40;0.13;;;0.13;;
43146;SDS011;28752;48.266;7.402;2022-10-15T00:37:05;0.20;;;0.20;;
43146;SDS011;28752;48.266;7.402;2022-10-15T00:39:32;0.40;;;0.20;;
43146;SDS011;28752;48.266;7.402;2022-10-15T00:41:58;0.57;;;0.35;;
43146;SDS011;28752;48.266;7.402;2022-10-15T00:47:00;1.03;;;0.30;;
43146;SDS011;28752;48.266;7.402;2022-10-15T00:49:30;0.17;;;0.10;;
43146;SDS011;28752;48.266;7.402;2022-10-15T00:52:01;0.22;;;0.22;;
43146;SDS011;28752;48.266;7.402;2022-10-15T00:54:30;0.25;;;0.22;;
43146;SDS011;28752;48.266;7.402;2022-10-15T00:56:58;0.20;;;0.20;;
43146;SDS011;28752;48.266;7.402;2022-10-15T00:59:25;0.73;;;0.20;;
43146;SDS011;28752;48.266;7.402;2022-10-15T01:01:53;0.52;;;0.10;;
43146;SDS011;28752;48.266;7.402;2022-10-15T01:04:19;0.65;;;0.10;;
43146;SDS011;28752;48.266;7.402;2022-10-15T01:06:45;0.40;;;0.10;;
43146;SDS011;28752;48.266;7.402;2022-10-15T01:09:11;0.13;;;0.10;;
43146;SDS011;28752;48.266;7.402;2022-10-15T01:17:25;0.00;;;0.00;;
43146;SDS011;28752;48.266;7.402;2022-10-15T01:23:14;0.35;;;0.10;;
43146;SDS011;28752;48.266;7.402;2022-10-15T01:29:15;0.20;;;0.10;;
43146;SDS011;28752;48.266;7.402;2022-10-15T01:40:07;0.15;;;0.00;;
43146;SDS011;28752;48.266;7.402;2022-10-15T01:42:52;0.10;;;0.00;;
43146;SDS011;28752;48.266;7.402;2022-10-15T01:45:27;0.45;;;0.10;;
43146;SDS011;28752;48.266;7.402;2022-10-15T01:47:58;0.20;;;0.00;;
43146;SDS011;28752;48.266;7.402;2022-10-15T01:50:29;0.20;;;0.13;;
43146;SDS011;28752;48.266;7.402;2022-10-15T01:52:57;0.10;;;0.03;;
43146;SDS011;28752;48.266;7.402;2022-10-15T01:55:25;0.20;;;0.20;;
43146;SDS011;28752;48.266;7.402;2022-10-15T01:57:51;0.28;;;0.13;;
43146;SDS011;28752;48.266;7.402;2022-10-15T02:00:20;0.22;;;0.15;;
43146;SDS011;28752;48.266;7.402;2022-10-15T02:02:46;0.32;;;0.08;;
43146;SDS011;28752;48.266;7.402;2022-10-15T02:05:14;0.00;;;0.00;;
43146;SDS011;28752;48.266;7.402;2022-10-15T02:07:57;0.00;;;0.00;;
43146;SDS011;28752;48.266;7.402;2022-10-15T02:10:28;0.00;;;0.00;;
43146;SDS011;28752;48.266;7.402;2022-10-15T02:16:10;0.35;;;0.10;;
43146;SDS011;28752;48.266;7.402;2022-10-15T02:18:39;0.28;;;0.10;;
43146;SDS011;28752;48.266;7.402;2022-10-15T02:21:07;0.10;;;0.10;;
43146;SDS011;28752;48.266;7.402;2022-10-15T02:23:51;0.15;;;0.00;;
43146;SDS011;28752;48.266;7.402;2022-10-15T02:26:20;0.00;;;0.00;;
43146;SDS011;28752;48.266;7.402;2022-10-15T02:28:51;0.40;;;0.10;;
43146;SDS011;28752;48.266;7.402;2022-10-15T02:31:21;0.38;;;0.20;;
43146;SDS011;28752;48.266;7.402;2022-10-15T02:33:47;0.10;;;0.00;;
43146;SDS011;28752;48.266;7.402;2022-10-15T02:36:15;0.50;;;0.30;;
43146;SDS011;28752;48.266;7.402;2022-10-15T02:38:43;0.00;;;0.00;;
43146;SDS011;28752;48.266;7.402;2022-10-15T02:41:10;0.43;;;0.15;;
43146;SDS011;28752;48.266;7.402;2022-10-15T02:43:36;0.05;;;0.05;;
43146;SDS011;28752;48.266;7.402;2022-10-15T02:46:03;0.03;;;0.00;;
43146;SDS011;28752;48.266;7.402;2022-10-15T02:48:29;0.30;;;0.10;;
43146;SDS011;28752;48.266;7.402;2022-10-15T02:50:54;0.10;;;0.00;;
43146;SDS011;28752;48.266;7.402;2022-10-15T02:53:20;0.43;;;0.10;;
43146;SDS011;28752;48.266;7.402;2022-10-15T02:55:45;0.10;;;0.10;;
43146;SDS011;28752;48.266;7.402;2022-10-15T02:58:11;0.10;;;0.10;;
43146;SDS011;28752;48.266;7.402;2022-10-15T03:00:36;0.43;;;0.15;;
43146;SDS011;28752;48.266;7.402;2022-10-15T03:03:02;0.22;;;0.13;;
43146;SDS011;28752;48.266;7.402;2022-10-15T03:05:27;0.10;;;0.10;;
43146;SDS011;28752;48.266;7.402;2022-10-15T03:07:53;0.00;;;0.00;;
43146;SDS011;28752;48.266;7.402;2022-10-15T03:10:18;0.35;;;0.35;;
43146;SDS011;28752;48.266;7.402;2022-10-15T03:12:44;0.10;;;0.10;;
43146;SDS011;28752;48.266;7.402;2022-10-15T03:15:09;0.00;;;0.00;;
43146;SDS011;28752;48.266;7.402;2022-10-15T03:17:35;1.23;;;0.20;;
43146;SDS011;28752;48.266;7.402;2022-10-15T03:20:00;0.27;;;0.20;;
43146;SDS011;28752;48.266;7.402;2022-10-15T03:22:25;1.13;;;0.60;;
43146;SDS011;28752;48.266;7.402;2022-10-15T03:24:51;0.17;;;0.10;;
43146;SDS011;28752;48.266;7.402;2022-10-15T03:27:17;0.25;;;0.10;;
43146;SDS011;28752;48.266;7.402;2022-10-15T03:29:43;0.10;;;0.10;;
43146;SDS011;28752;48.266;7.402;2022-10-15T03:32:08;0.10;;;0.10;;
43146;SDS011;28752;48.266;7.402;2022-10-15T03:34:33;0.00;;;0.00;;
43146;SDS011;28752;48.266;7.402;2022-10-15T03:36:59;0.33;;;0.13;;
43146;SDS011;28752;48.266;7.402;2022-10-15T03:39:24;0.30;;;0.13;;
43146;SDS011;28752;48.266;7.402;2022-10-15T03:41:51;0.10;;;0.00;;
43146;SDS011;28752;48.266;7.402;2022-10-15T03:44:17;0.13;;;0.13;;
43146;SDS011;28752;48.266;7.402;2022-10-15T03:46:43;0.30;;;0.10;;
43146;SDS011;28752;48.266;7.402;2022-10-15T03:49:10;0.73;;;0.30;;
43146;SDS011;28752;48.266;7.402;2022-10-15T03:51:36;0.35;;;0.30;;
43146;SDS011;28752;48.266;7.402;2022-10-15T03:54:01;1.02;;;0.47;;
43146;SDS011;28752;48.266;7.402;2022-10-15T03:56:27;0.43;;;0.22;;
43146;SDS011;28752;48.266;7.402;2022-10-15T03:58:52;0.33;;;0.10;;
43146;SDS011;28752;48.266;7.402;2022-10-15T04:01:17;0.33;;;0.17;;
43146;SDS011;28752;48.266;7.402;2022-10-15T04:03:43;0.43;;;0.20;;
43146;SDS011;28752;48.266;7.402;2022-10-15T04:06:09;2.95;;;0.38;;
43146;SDS011;28752;48.266;7.402;2022-10-15T04:08:35;0.17;;;0.10;;
43146;SDS011;28752;48.266;7.402;2022-10-15T04:11:00;0.77;;;0.10;;
43146;SDS011;28752;48.266;7.402;2022-10-15T04:13:26;0.28;;;0.10;;
43146;SDS011;28752;48.266;7.402;2022-10-15T04:15:52;0.80;;;0.32;;
43146;SDS011;28752;48.266;7.402;2022-10-15T04:18:17;0.25;;;0.08;;
43146;SDS011;28752;48.266;7.402;2022-10-15T04:20:46;0.28;;;0.10;;
43146;SDS011;28752;48.266;7.402;2022-10-15T04:23:11;0.35;;;0.10;;
43146;SDS011;28752;48.266;7.402;2022-10-15T04:25:37;0.30;;;0.10;;
43146;SDS011;28752;48.266;7.402;2022-10-15T04:28:03;1.45;;;0.35;;
43146;SDS011;28752;48.266;7.402;2022-10-15T04:30:29;0.10;;;0.10;;
43146;SDS011;28752;48.266;7.402;2022-10-15T04:32:54;0.27;;;0.20;;
43146;SDS011;28752;48.266;7.402;2022-10-15T04:35:20;0.40;;;0.10;;
43146;SDS011;28752;48.266;7.402;2022-10-15T04:37:46;1.10;;;0.43;;
43146;SDS011;28752;48.266;7.402;2022-10-15T04:40:11;0.20;;;0.10;;
43146;SDS011;28752;48.266;7.402;2022-10-15T04:42:37;0.57;;;0.28;;
43146;SDS011;28752;48.266;7.402;2022-10-15T04:45:04;0.70;;;0.20;;
43146;SDS011;28752;48.266;7.402;2022-10-15T04:47:30;1.20;;;0.40;;
43146;SDS011;28752;48.266;7.402;2022-10-15T04:49:55;0.10;;;0.10;;
43146;SDS011;28752;48.266;7.402;2022-10-15T04:52:21;0.10;;;0.00;;
43146;SDS011;28752;48.266;7.402;2022-10-15T04:54:46;0.30;;;0.23;;
43146;SDS011;28752;48.266;7.402;2022-10-15T04:57:12;0.27;;;0.00;;
43146;SDS011;28752;48.266;7.402;2022-10-15T04:59:37;0.10;;;0.07;;
43146;SDS011;28752;48.266;7.402;2022-10-15T05:02:02;0.10;;;0.10;;
43146;SDS011;28752;48.266;7.402;2022-10-15T05:04:28;0.10;;;0.10;;
43146;SDS011;28752;48.266;7.402;2022-10-15T05:06:53;0.77;;;0.37;;
43146;SDS011;28752;48.266;7.402;2022-10-15T05:09:18;0.57;;;0.10;;
43146;SDS011;28752;48.266;7.402;2022-10-15T05:11:44;0.20;;;0.10;;
43146;SDS011;28752;48.266;7.402;2022-10-15T05:14:09;0.10;;;0.10;;
43146;SDS011;28752;48.266;7.402;2022-10-15T05:16:34;13.70;;;0.40;;
43146;SDS011;28752;48.266;7.402;2022-10-15T05:19:01;0.37;;;0.30;;
43146;SDS011;28752;48.266;7.402;2022-10-15T05:21:29;0.90;;;0.38;;
43146;SDS011;28752;48.266;7.402;2022-10-15T05:23:56;0.32;;;0.20;;
43146;SDS011;28752;48.266;7.402;2022-10-15T05:26:23;0.25;;;0.10;;
43146;SDS011;28752;48.266;7.402;2022-10-15T05:28:50;0.88;;;0.30;;
43146;SDS011;28752;48.266;7.402;2022-10-15T05:31:17;0.52;;;0.43;;
43146;SDS011;28752;48.266;7.402;2022-10-15T05:33:45;0.25;;;0.10;;
43146;SDS011;28752;48.266;7.402;2022-10-15T05:36:13;0.38;;;0.20;;
43146;SDS011;28752;48.266;7.402;2022-10-15T05:38:41;1.05;;;0.25;;
43146;SDS011;28752;48.266;7.402;2022-10-15T05:41:07;1.42;;;0.55;;
43146;SDS011;28752;48.266;7.402;2022-10-15T05:43:32;0.70;;;0.20;;
43146;SDS011;28752;48.266;7.402;2022-10-15T05:45:58;1.35;;;0.28;;
43146;SDS011;28752;48.266;7.402;2022-10-15T05:48:23;0.30;;;0.10;;
43146;SDS011;28752;48.266;7.402;2022-10-15T05:50:49;0.20;;;0.20;;
43146;SDS011;28752;48.266;7.402;2022-10-15T05:53:14;0.77;;;0.20;;
43146;SDS011;28752;48.266;7.402;2022-10-15T05:55:39;0.57;;;0.10;;
43146;SDS011;28752;48.266;7.402;2022-10-15T05:58:05;1.63;;;0.23;;
43146;SDS011;28752;48.266;7.402;2022-10-15T06:00:30;0.83;;;0.20;;
43146;SDS011;28752;48.266;7.402;2022-10-15T06:02:56;0.35;;;0.10;;
43146;SDS011;28752;48.266;7.402;2022-10-15T06:05:22;12.57;;;0.40;;
43146;SDS011;28752;48.266;7.402;2022-10-15T06:07:48;0.10;;;0.10;;
43146;SDS011;28752;48.266;7.402;2022-10-15T06:10:13;0.00;;;0.00;;
43146;SDS011;28752;48.266;7.402;2022-10-15T06:12:39;0.20;;;0.10;;
43146;SDS011;28752;48.266;7.402;2022-10-15T06:15:05;0.75;;;0.35;;
43146;SDS011;28752;48.266;7.402;2022-10-15T06:17:30;0.50;;;0.20;;
43146;SDS011;28752;48.266;7.402;2022-10-15T06:19:56;3.10;;;0.57;;
43146;SDS011;28752;48.266;7.402;2022-10-15T06:22:21;1.00;;;0.40;;
43146;SDS011;28752;48.266;7.402;2022-10-15T06:24:47;0.93;;;0.43;;
43146;SDS011;28752;48.266;7.402;2022-10-15T06:27:12;1.87;;;0.53;;
43146;SDS011;28752;48.266;7.402;2022-10-15T06:29:38;1.53;;;0.43;;
43146;SDS011;28752;48.266;7.402;2022-10-15T06:32:04;0.55;;;0.20;;
43146;SDS011;28752;48.266;7.402;2022-10-15T06:34:33;0.30;;;0.17;;
43146;SDS011;28752;48.266;7.402;2022-10-15T06:36:58;0.43;;;0.10;;
43146;SDS011;28752;48.266;7.402;2022-10-15T06:39:23;0.40;;;0.10;;
43146;SDS011;28752;48.266;7.402;2022-10-15T06:41:49;0.63;;;0.20;;
43146;SDS011;28752;48.266;7.402;2022-10-15T06:44:14;0.20;;;0.13;;
43146;SDS011;28752;48.266;7.402;2022-10-15T06:46:39;0.20;;;0.20;;
43146;SDS011;28752;48.266;7.402;2022-10-15T06:49:05;0.10;;;0.10;;
43146;SDS011;28752;48.266;7.402;2022-10-15T06:51:30;1.87;;;0.57;;
43146;SDS011;28752;48.266;7.402;2022-10-15T06:53:56;0.93;;;0.83;;
43146;SDS011;28752;48.266;7.402;2022-10-15T06:56:21;0.50;;;0.30;;
43146;SDS011;28752;48.266;7.402;2022-10-15T06:58:46;0.80;;;0.60;;
43146;SDS011;28752;48.266;7.402;2022-10-15T07:01:12;1.30;;;0.50;;
43146;SDS011;28752;48.266;7.402;2022-10-15T07:03:37;1.20;;;0.53;;
43146;SDS011;28752;48.266;7.402;2022-10-15T07:06:06;1.95;;;0.98;;
43146;SDS011;28752;48.266;7.402;2022-10-15T07:08:33;3.00;;;1.10;;
43146;SDS011;28752;48.266;7.402;2022-10-15T07:11:02;2.13;;;0.93;;
43146;SDS011;28752;48.266;7.402;2022-10-15T07:13:29;3.03;;;1.00;;
43146;SDS011;28752;48.266;7.402;2022-10-15T07:15:55;3.20;;;1.27;;
43146;SDS011;28752;48.266;7.402;2022-10-15T07:18:20;1.63;;;0.67;;
43146;SDS011;28752;48.266;7.402;2022-10-15T07:20:46;2.17;;;1.00;;
43146;SDS011;28752;48.266;7.402;2022-10-15T07:23:12;1.15;;;0.52;;
43146;SDS011;28752;48.266;7.402;2022-10-15T07:25:37;2.57;;;0.90;;
43146;SDS011;28752;48.266;7.402;2022-10-15T07:28:03;1.95;;;1.00;;
43146;SDS011;28752;48.266;7.402;2022-10-15T07:30:29;1.80;;;0.82;;
43146;SDS011;28752;48.266;7.402;2022-10-15T07:32:55;2.67;;;0.90;;
43146;SDS011;28752;48.266;7.402;2022-10-15T07:35:21;2.13;;;0.98;;
43146;SDS011;28752;48.266;7.402;2022-10-15T07:37:46;1.70;;;0.77;;
43146;SDS011;28752;48.266;7.402;2022-10-15T07:40:13;2.92;;;1.27;;
43146;SDS011;28752;48.266;7.402;2022-10-15T07:42:38;3.00;;;1.67;;
43146;SDS011;28752;48.266;7.402;2022-10-15T07:45:05;1.20;;;0.90;;
43146;SDS011;28752;48.266;7.402;2022-10-15T07:47:31;1.10;;;0.80;;
43146;SDS011;28752;48.266;7.402;2022-10-15T07:49:56;3.60;;;1.33;;
43146;SDS011;28752;48.266;7.402;2022-10-15T07:52:21;3.60;;;1.77;;
43146;SDS011;28752;48.266;7.402;2022-10-15T07:54:47;4.13;;;1.97;;
43146;SDS011;28752;48.266;7.402;2022-10-15T07:57:12;1.93;;;0.70;;
43146;SDS011;28752;48.266;7.402;2022-10-15T07:59:37;0.50;;;0.23;;
43146;SDS011;28752;48.266;7.402;2022-10-15T08:02:03;1.10;;;0.53;;
43146;SDS011;28752;48.266;7.402;2022-10-15T08:04:28;0.13;;;0.13;;
43146;SDS011;28752;48.266;7.402;2022-10-15T08:06:54;0.50;;;0.40;;
43146;SDS011;28752;48.266;7.402;2022-10-15T08:09:19;1.83;;;0.90;;
43146;SDS011;28752;48.266;7.402;2022-10-15T08:11:44;1.87;;;0.50;;
43146;SDS011;28752;48.266;7.402;2022-10-15T08:14:10;1.00;;;0.63;;
43146;SDS011;28752;48.266;7.402;2022-10-15T08:16:35;0.97;;;0.37;;
43146;SDS011;28752;48.266;7.402;2022-10-15T08:19:01;1.83;;;0.87;;
43146;SDS011;28752;48.266;7.402;2022-10-15T08:21:26;1.17;;;0.40;;
43146;SDS011;28752;48.266;7.402;2022-10-15T08:23:51;1.37;;;0.70;;
43146;SDS011;28752;48.266;7.402;2022-10-15T08:26:17;1.17;;;0.60;;
43146;SDS011;28752;48.266;7.402;2022-10-15T08:28:43;0.50;;;0.30;;
43146;SDS011;28752;48.266;7.402;2022-10-15T08:31:08;1.05;;;0.40;;
43146;SDS011;28752;48.266;7.402;2022-10-15T08:33:34;0.80;;;0.40;;
43146;SDS011;28752;48.266;7.402;2022-10-15T08:36:01;0.75;;;0.38;;
43146;SDS011;28752;48.266;7.402;2022-10-15T08:38:29;1.63;;;0.52;;
43146;SDS011;28752;48.266;7.402;2022-10-15T08:40:56;1.42;;;0.50;;
43146;SDS011;28752;48.266;7.402;2022-10-15T08:43:24;0.90;;;0.60;;
43146;SDS011;28752;48.266;7.402;2022-10-15T08:45:59;0.95;;;0.30;;
43146;SDS011;28752;48.266;7.402;2022-10-15T08:48:29;1.55;;;0.50;;
43146;SDS011;28752;48.266;7.402;2022-10-15T08:51:10;0.68;;;0.30;;
43146;SDS011;28752;48.266;7.402;2022-10-15T08:53:42;0.82;;;0.40;;
43146;SDS011;28752;48.266;7.402;2022-10-15T08:56:14;0.63;;;0.40;;
43146;SDS011;28752;48.266;7.402;2022-10-15T09:04:40;1.30;;;0.70;;
43146;SDS011;28752;48.266;7.402;2022-10-15T09:07:39;1.75;;;0.60;;
43146;SDS011;28752;48.266;7.402;2022-10-15T09:13:11;2.13;;;1.05;;
43146;SDS011;28752;48.266;7.402;2022-10-15T09:15:55;0.63;;;0.40;;
43146;SDS011;28752;48.266;7.402;2022-10-15T09:18:24;0.80;;;0.57;;
43146;SDS011;28752;48.266;7.402;2022-10-15T09:20:54;0.88;;;0.40;;
43146;SDS011;28752;48.266;7.402;2022-10-15T09:23:22;1.65;;;0.77;;
43146;SDS011;28752;48.266;7.402;2022-10-15T09:26:40;1.00;;;0.50;;
43146;SDS011;28752;48.266;7.402;2022-10-15T09:31:22;2.70;;;0.97;;
43146;SDS011;28752;48.266;7.402;2022-10-15T09:36:39;2.55;;;1.02;;
43146;SDS011;28752;48.266;7.402;2022-10-15T09:44:36;1.58;;;0.28;;
43146;SDS011;28752;48.266;7.402;2022-10-15T09:47:23;1.05;;;0.50;;
43146;SDS011;28752;48.266;7.402;2022-10-15T09:49:53;0.38;;;0.30;;
43146;SDS011;28752;48.266;7.402;2022-10-15T09:57:30;1.27;;;0.40;;
43146;SDS011;28752;48.266;7.402;2022-10-15T09:59:59;0.50;;;0.40;;
43146;SDS011;28752;48.266;7.402;2022-10-15T10:02:27;0.10;;;0.10;;
43146;SDS011;28752;48.266;7.402;2022-10-15T10:04:53;1.02;;;0.40;;
43146;SDS011;28752;48.266;7.402;2022-10-15T10:07:32;0.20;;;0.15;;
43146;SDS011;28752;48.266;7.402;2022-10-15T10:13:04;3.35;;;0.52;;
43146;SDS011;28752;48.266;7.402;2022-10-15T10:15:44;0.30;;;0.20;;
43146;SDS011;28752;48.266;7.402;2022-10-15T10:18:20;1.50;;;0.47;;
43146;SDS011;28752;48.266;7.402;2022-10-15T10:20:56;0.50;;;0.30;;
43146;SDS011;28752;48.266;7.402;2022-10-15T10:23:27;0.10;;;0.10;;
43146;SDS011;28752;48.266;7.402;2022-10-15T10:25:59;0.20;;;0.10;;
43146;SDS011;28752;48.266;7.402;2022-10-15T10:28:38;0.17;;;0.15;;
43146;SDS011;28752;48.266;7.402;2022-10-15T10:31:10;0.43;;;0.20;;
43146;SDS011;28752;48.266;7.402;2022-10-15T10:33:41;1.33;;;0.25;;
43146;SDS011;28752;48.266;7.402;2022-10-15T10:36:18;0.10;;;0.10;;
43146;SDS011;28752;48.266;7.402;2022-10-15T10:41:58;0.22;;;0.15;;
43146;SDS011;28752;48.266;7.402;2022-10-15T10:44:30;0.55;;;0.17;;
43146;SDS011;28752;48.266;7.402;2022-10-15T10:47:11;0.52;;;0.20;;
43146;SDS011;28752;48.266;7.402;2022-10-15T10:49:37;0.20;;;0.20;;
43146;SDS011;28752;48.266;7.402;2022-10-15T10:52:31;0.55;;;0.15;;
43146;SDS011;28752;48.266;7.402;2022-10-15T10:57:28;1.65;;;0.30;;
43146;SDS011;28752;48.266;7.402;2022-10-15T11:00:16;0.13;;;0.13;;
43146;SDS011;28752;48.266;7.402;2022-10-15T11:02:45;0.20;;;0.10;;
43146;SDS011;28752;48.266;7.402;2022-10-15T11:05:11;0.30;;;0.10;;
43146;SDS011;28752;48.266;7.402;2022-10-15T11:26:42;0.10;;;0.10;;
43146;SDS011;28752;48.266;7.402;2022-10-15T11:34:34;0.20;;;0.10;;
43146;SDS011;28752;48.266;7.402;2022-10-15T11:40:19;0.08;;;0.08;;
43146;SDS011;28752;48.266;7.402;2022-10-15T11:42:59;0.32;;;0.10;;
43146;SDS011;28752;48.266;7.402;2022-10-15T11:48:15;0.43;;;0.10;;
43146;SDS011;28752;48.266;7.402;2022-10-15T11:51:00;0.00;;;0.00;;
43146;SDS011;28752;48.266;7.402;2022-10-15T11:56:34;0.60;;;0.30;;
43146;SDS011;28752;48.266;7.402;2022-10-15T12:01:36;0.30;;;0.20;;
43146;SDS011;28752;48.266;7.402;2022-10-15T12:07:00;0.65;;;0.22;;
43146;SDS011;28752;48.266;7.402;2022-10-15T12:09:29;0.30;;;0.22;;
43146;SDS011;28752;48.266;7.402;2022-10-15T12:19:55;0.52;;;0.10;;
43146;SDS011;28752;48.266;7.402;2022-10-15T12:27:58;0.20;;;0.00;;
43146;SDS011;28752;48.266;7.402;2022-10-15T12:30:26;0.70;;;0.25;;
43146;SDS011;28752;48.266;7.402;2022-10-15T12:32:58;0.75;;;0.08;;
43146;SDS011;28752;48.266;7.402;2022-10-15T12:38:19;0.20;;;0.20;;
43146;SDS011;28752;48.266;7.402;2022-10-15T12:40:54;0.00;;;0.00;;
43146;SDS011;28752;48.266;7.402;2022-10-15T12:45:56;0.00;;;0.00;;
43146;SDS011;28752;48.266;7.402;2022-10-15T12:48:28;0.22;;;0.15;;
43146;SDS011;28752;48.266;7.402;2022-10-15T12:51:40;0.10;;;0.10;;
43146;SDS011;28752;48.266;7.402;2022-10-15T12:53:44;0.10;;;0.10;;
43146;SDS011;28752;48.266;7.402;2022-10-15T12:56:11;0.73;;;0.63;;
43146;SDS011;28752;48.266;7.402;2022-10-15T13:03:56;0.00;;;0.00;;
43146;SDS011;28752;48.266;7.402;2022-10-15T13:06:31;0.20;;;0.10;;
43146;SDS011;28752;48.266;7.402;2022-10-15T13:11:30;0.30;;;0.10;;
43146;SDS011;28752;48.266;7.402;2022-10-15T13:16:40;3.60;;;0.38;;
43146;SDS011;28752;48.266;7.402;2022-10-15T13:19:15;0.40;;;0.20;;
43146;SDS011;28752;48.266;7.402;2022-10-15T13:21:49;0.90;;;0.28;;
43146;SDS011;28752;48.266;7.402;2022-10-15T13:24:28;0.10;;;0.10;;
43146;SDS011;28752;48.266;7.402;2022-10-15T13:27:02;0.20;;;0.00;;
43146;SDS011;28752;48.266;7.402;2022-10-15T13:29:37;0.10;;;0.10;;
43146;SDS011;28752;48.266;7.402;2022-10-15T13:32:02;0.10;;;0.10;;
43146;SDS011;28752;48.266;7.402;2022-10-15T13:34:30;0.03;;;0.00;;
43146;SDS011;28752;48.266;7.402;2022-10-15T13:37:00;0.00;;;0.00;;
43146;SDS011;28752;48.266;7.402;2022-10-15T13:42:08;1.52;;;0.47;;
43146;SDS011;28752;48.266;7.402;2022-10-15T13:44:38;0.20;;;0.10;;
43146;SDS011;28752;48.266;7.402;2022-10-15T13:49:48;1.10;;;0.40;;
43146;SDS011;28752;48.266;7.402;2022-10-15T13:52:14;0.00;;;0.00;;
43146;SDS011;28752;48.266;7.402;2022-10-15T13:54:39;0.00;;;0.00;;
43146;SDS011;28752;48.266;7.402;2022-10-15T13:57:09;0.22;;;0.10;;
43146;SDS011;28752;48.266;7.402;2022-10-15T13:59:39;0.45;;;0.20;;
43146;SDS011;28752;48.266;7.402;2022-10-15T14:02:09;0.30;;;0.10;;
43146;SDS011;28752;48.266;7.402;2022-10-15T14:04:35;0.43;;;0.05;;
43146;SDS011;28752;48.266;7.402;2022-10-15T14:07:02;0.00;;;0.00;;
43146;SDS011;28752;48.266;7.402;2022-10-15T14:09:42;0.10;;;0.05;;
43146;SDS011;28752;48.266;7.402;2022-10-15T14:12:10;0.95;;;0.10;;
43146;SDS011;28752;48.266;7.402;2022-10-15T14:14:37;0.20;;;0.10;;
43146;SDS011;28752;48.266;7.402;2022-10-15T14:17:06;0.20;;;0.08;;
43146;SDS011;28752;48.266;7.402;2022-10-15T14:19:37;0.10;;;0.10;;
43146;SDS011;28752;48.266;7.402;2022-10-15T14:22:03;0.10;;;0.00;;
43146;SDS011;28752;48.266;7.402;2022-10-15T14:24:38;0.13;;;0.00;;
43146;SDS011;28752;48.266;7.402;2022-10-15T14:27:06;0.00;;;0.00;;
43146;SDS011;28752;48.266;7.402;2022-10-15T14:29:38;0.05;;;0.00;;
43146;SDS011;28752;48.266;7.402;2022-10-15T14:34:46;0.00;;;0.00;;
43146;SDS011;28752;48.266;7.402;2022-10-15T14:40:01;0.10;;;0.00;;
43146;SDS011;28752;48.266;7.402;2022-10-15T14:42:32;0.30;;;0.00;;
43146;SDS011;28752;48.266;7.402;2022-10-15T14:47:34;0.32;;;0.10;;
43146;SDS011;28752;48.266;7.402;2022-10-15T14:50:00;0.00;;;0.00;;
43146;SDS011;28752;48.266;7.402;2022-10-15T14:52:28;0.10;;;0.00;;
43146;SDS011;28752;48.266;7.402;2022-10-15T14:57:24;0.20;;;0.20;;
43146;SDS011;28752;48.266;7.402;2022-10-15T14:59:54;0.30;;;0.03;;
43146;SDS011;28752;48.266;7.402;2022-10-15T15:02:22;0.00;;;0.00;;
43146;SDS011;28752;48.266;7.402;2022-10-15T15:10:02;0.22;;;0.05;;
43146;SDS011;28752;48.266;7.402;2022-10-15T15:12:29;0.45;;;0.10;;
43146;SDS011;28752;48.266;7.402;2022-10-15T15:14:57;0.10;;;0.10;;
43146;SDS011;28752;48.266;7.402;2022-10-15T15:17:24;0.55;;;0.10;;
43146;SDS011;28752;48.266;7.402;2022-10-15T15:19:54;0.28;;;0.10;;
43146;SDS011;28752;48.266;7.402;2022-10-15T15:22:29;0.30;;;0.10;;
43146;SDS011;28752;48.266;7.402;2022-10-15T15:24:56;0.17;;;0.00;;
43146;SDS011;28752;48.266;7.402;2022-10-15T15:27:25;0.00;;;0.00;;
43146;SDS011;28752;48.266;7.402;2022-10-15T15:29:52;0.47;;;0.13;;
43146;SDS011;28752;48.266;7.402;2022-10-15T15:32:19;0.47;;;0.17;;
43146;SDS011;28752;48.266;7.402;2022-10-15T15:34:45;0.13;;;0.13;;
43146;SDS011;28752;48.266;7.402;2022-10-15T15:37:19;0.57;;;0.13;;
43146;SDS011;28752;48.266;7.402;2022-10-15T15:39:47;0.82;;;0.17;;
43146;SDS011;28752;48.266;7.402;2022-10-15T15:42:17;1.15;;;0.22;;
43146;SDS011;28752;48.266;7.402;2022-10-15T15:44:45;0.90;;;0.20;;
43146;SDS011;28752;48.266;7.402;2022-10-15T15:47:11;0.32;;;0.15;;
43146;SDS011;28752;48.266;7.402;2022-10-15T15:49:37;1.50;;;0.30;;
43146;SDS011;28752;48.266;7.402;2022-10-15T15:54:38;1.45;;;0.57;;
43146;SDS011;28752;48.266;7.402;2022-10-15T15:57:04;2.08;;;0.68;;
43146;SDS011;28752;48.266;7.402;2022-10-15T15:59:29;1.20;;;0.53;;
43146;SDS011;28752;48.266;7.402;2022-10-15T16:01:54;0.32;;;0.17;;
43146;SDS011;28752;48.266;7.402;2022-10-15T16:04:20;0.13;;;0.10;;
43146;SDS011;28752;48.266;7.402;2022-10-15T16:06:46;1.58;;;0.25;;
43146;SDS011;28752;48.266;7.402;2022-10-15T16:09:14;0.22;;;0.20;;
43146;SDS011;28752;48.266;7.402;2022-10-15T16:11:41;0.00;;;0.00;;
43146;SDS011;28752;48.266;7.402;2022-10-15T16:14:06;8.18;;;0.47;;
43146;SDS011;28752;48.266;7.402;2022-10-15T16:16:32;5.18;;;0.75;;
43146;SDS011;28752;48.266;7.402;2022-10-15T16:18:57;1.17;;;0.40;;
43146;SDS011;28752;48.266;7.402;2022-10-15T16:21:26;0.50;;;0.10;;
43146;SDS011;28752;48.266;7.402;2022-10-15T16:23:52;1.55;;;0.88;;
43146;SDS011;28752;48.266;7.402;2022-10-15T16:26:18;0.20;;;0.20;;
43146;SDS011;28752;48.266;7.402;2022-10-15T16:28:44;0.73;;;0.20;;
43146;SDS011;28752;48.266;7.402;2022-10-15T16:31:20;0.93;;;0.32;;
43146;SDS011;28752;48.266;7.402;2022-10-15T16:33:45;0.20;;;0.10;;
43146;SDS011;28752;48.266;7.402;2022-10-15T16:36:11;0.47;;;0.17;;
43146;SDS011;28752;48.266;7.402;2022-10-15T16:38:40;2.03;;;0.70;;
43146;SDS011;28752;48.266;7.402;2022-10-15T16:41:10;3.15;;;1.20;;
43146;SDS011;28752;48.266;7.402;2022-10-15T16:43:37;0.20;;;0.10;;
43146;SDS011;28752;48.266;7.402;2022-10-15T16:46:02;0.90;;;0.15;;
43146;SDS011;28752;48.266;7.402;2022-10-15T16:51:08;0.47;;;0.20;;
43146;SDS011;28752;48.266;7.402;2022-10-15T16:53:40;0.75;;;0.30;;
43146;SDS011;28752;48.266;7.402;2022-10-15T16:56:08;1.90;;;0.52;;
43146;SDS011;28752;48.266;7.402;2022-10-15T16:58:37;1.90;;;0.73;;
43146;SDS011;28752;48.266;7.402;2022-10-15T17:01:04;0.20;;;0.10;;
43146;SDS011;28752;48.266;7.402;2022-10-15T17:03:31;0.55;;;0.20;;
43146;SDS011;28752;48.266;7.402;2022-10-15T17:05:59;0.65;;;0.10;;
43146;SDS011;28752;48.266;7.402;2022-10-15T17:08:27;0.28;;;0.20;;
43146;SDS011;28752;48.266;7.402;2022-10-15T17:10:59;0.80;;;0.43;;
43146;SDS011;28752;48.266;7.402;2022-10-15T17:13:24;1.67;;;0.65;;
43146;SDS011;28752;48.266;7.402;2022-10-15T17:15:50;1.57;;;0.50;;
43146;SDS011;28752;48.266;7.402;2022-10-15T17:18:15;1.27;;;0.65;;
43146;SDS011;28752;48.266;7.402;2022-10-15T17:20:47;1.90;;;0.82;;
43146;SDS011;28752;48.266;7.402;2022-10-15T17:23:13;19.10;;;1.23;;
43146;SDS011;28752;48.266;7.402;2022-10-15T17:25:40;1.45;;;0.90;;
43146;SDS011;28752;48.266;7.402;2022-10-15T17:30:36;0.50;;;0.40;;